createdAt,value
2017-12-16T00:00:52.559Z,12.20
2017-12-16T00:01:52.490Z,12.20
2017-12-16T00:02:52.557Z,12.20
2017-12-16T00:03:52.498Z,12.20
2017-12-16T00:04:52.558Z,12.20
2017-12-16T00:05:52.490Z,12.20
2017-12-16T00:06:52.493Z,12.20
2017-12-16T00:07:52.489Z,12.20
2017-12-16T00:08:52.561Z,12.20
2017-12-16T00:09:52.509Z,12.20
2017-12-16T00:10:52.561Z,11.50
2017-12-16T00:11:52.489Z,11.50
2017-12-16T00:12:52.496Z,11.50
2017-12-16T00:13:52.492Z,11.50
2017-12-16T00:14:52.564Z,11.50
2017-12-16T00:15:52.568Z,11.50
2017-12-16T00:16:52.497Z,11.50
2017-12-16T00:17:52.564Z,11.50
2017-12-16T00:18:52.496Z,11.50
2017-12-16T00:19:52.565Z,11.50
2017-12-16T00:20:52.493Z,9.80
2017-12-16T00:21:52.568Z,9.80
2017-12-16T00:22:52.493Z,9.80
2017-12-16T00:23:52.568Z,9.80
2017-12-16T00:24:52.494Z,9.80
2017-12-16T00:25:52.573Z,9.80
2017-12-16T00:26:52.497Z,9.80
2017-12-16T00:27:52.570Z,9.80
2017-12-16T00:28:52.502Z,9.80
2017-12-16T00:29:52.570Z,9.80
2017-12-16T00:30:52.501Z,11.20
2017-12-16T00:31:52.579Z,11.20
2017-12-16T00:32:52.572Z,11.20
2017-12-16T00:33:52.514Z,11.20
2017-12-16T00:34:52.579Z,11.20
2017-12-16T00:35:52.515Z,11.20
2017-12-16T00:36:52.581Z,11.20
2017-12-16T00:37:52.511Z,11.20
2017-12-16T00:38:52.580Z,11.20
2017-12-16T00:39:52.513Z,11.20
2017-12-16T00:40:52.637Z,12.60
2017-12-16T00:41:52.512Z,12.60
2017-12-16T00:42:52.581Z,12.60
2017-12-16T00:43:52.518Z,12.60
2017-12-16T00:44:52.581Z,12.60
2017-12-16T00:45:52.521Z,12.60
2017-12-16T00:46:52.582Z,12.60
2017-12-16T00:47:52.514Z,12.60
2017-12-16T00:48:52.584Z,12.60
2017-12-16T00:49:52.518Z,12.60
2017-12-16T00:50:52.583Z,15.40
2017-12-16T00:51:52.519Z,15.40
2017-12-16T00:52:52.588Z,15.40
2017-12-16T00:53:52.536Z,15.40
2017-12-16T00:54:52.586Z,15.40
2017-12-16T00:55:52.539Z,15.40
2017-12-16T00:56:52.591Z,15.40
2017-12-16T00:57:52.522Z,15.40
2017-12-16T00:58:52.591Z,15.40
2017-12-16T00:59:52.524Z,15.40
2017-12-16T01:00:52.581Z,8.90
2017-12-16T01:01:52.582Z,8.90
2017-12-16T01:02:52.545Z,8.90
2017-12-16T01:03:52.519Z,8.90
2017-12-16T01:04:52.582Z,8.90
2017-12-16T01:05:52.499Z,8.90
2017-12-16T01:06:52.580Z,8.90
2017-12-16T01:07:52.593Z,8.90
2017-12-16T01:08:52.500Z,8.90
2017-12-16T01:09:52.548Z,8.90
2017-12-16T01:10:52.595Z,8.40
2017-12-16T01:11:52.521Z,8.40
2017-12-16T01:12:52.526Z,8.40
2017-12-16T01:13:52.599Z,8.40
2017-12-16T01:14:52.530Z,8.40
2017-12-16T01:15:52.481Z,8.40
2017-12-16T01:16:52.528Z,8.40
2017-12-16T01:17:52.612Z,8.40
2017-12-16T01:18:52.531Z,8.40
2017-12-16T01:19:52.599Z,8.40
2017-12-16T01:20:52.530Z,13.20
2017-12-16T01:21:52.548Z,13.20
2017-12-16T01:22:52.603Z,13.20
2017-12-16T01:23:52.536Z,13.20
2017-12-16T01:24:52.606Z,13.20
2017-12-16T01:25:52.539Z,13.20
2017-12-16T01:26:52.606Z,13.20
2017-12-16T01:27:52.545Z,13.20
2017-12-16T01:28:52.608Z,13.20
2017-12-16T01:29:52.613Z,13.20
2017-12-16T01:30:52.594Z,9.80
2017-12-16T01:31:52.543Z,9.80
2017-12-16T01:32:52.612Z,9.80
2017-12-16T01:33:52.542Z,9.80
2017-12-16T01:34:52.615Z,9.80
2017-12-16T01:35:52.545Z,9.80
2017-12-16T01:36:52.543Z,9.80
2017-12-16T01:37:52.612Z,9.80
2017-12-16T01:38:52.542Z,9.80
2017-12-16T01:39:52.612Z,9.80
2017-12-16T01:40:52.573Z,12.50
2017-12-16T01:41:52.594Z,12.50
2017-12-16T01:42:52.594Z,12.50
2017-12-16T01:43:52.540Z,12.50
2017-12-16T01:44:52.545Z,12.50
2017-12-16T01:45:52.510Z,12.50
2017-12-16T01:46:52.578Z,12.50
2017-12-16T01:47:52.570Z,12.50
2017-12-16T01:48:52.523Z,12.50
2017-12-16T01:49:52.511Z,12.50
2017-12-16T01:50:52.551Z,10.60
2017-12-16T01:51:52.622Z,10.60
2017-12-16T01:52:52.556Z,10.60
2017-12-16T01:53:52.623Z,10.60
2017-12-16T01:54:52.553Z,10.60
2017-12-16T01:55:52.512Z,10.60
2017-12-16T01:56:52.558Z,10.60
2017-12-16T01:57:52.625Z,10.60
2017-12-16T01:58:52.557Z,10.60
2017-12-16T01:59:52.626Z,10.60
2017-12-16T02:00:52.560Z,10.90
2017-12-16T02:01:52.627Z,10.90
2017-12-16T02:02:52.557Z,10.90
2017-12-16T02:03:52.628Z,10.90
2017-12-16T02:04:52.557Z,10.90
2017-12-16T02:05:52.629Z,10.90
2017-12-16T02:06:52.555Z,10.90
2017-12-16T02:07:52.632Z,10.90
2017-12-16T02:08:52.556Z,10.90
2017-12-16T02:09:52.560Z,10.90
2017-12-16T02:10:52.587Z,9.00
2017-12-16T02:11:52.561Z,9.00
2017-12-16T02:12:52.574Z,9.00
2017-12-16T02:13:52.609Z,9.00
2017-12-16T02:14:52.594Z,9.00
2017-12-16T02:15:52.563Z,9.00
2017-12-16T02:16:52.579Z,9.00
2017-12-16T02:17:52.563Z,9.00
2017-12-16T02:18:52.502Z,9.00
2017-12-16T02:19:52.561Z,9.00
2017-12-16T02:20:52.605Z,10.70
2017-12-16T02:21:52.604Z,10.70
2017-12-16T02:22:52.537Z,10.70
2017-12-16T02:23:52.632Z,10.70
2017-12-16T02:24:52.627Z,10.70
2017-12-16T02:25:52.589Z,10.70
2017-12-16T02:26:52.543Z,10.70
2017-12-16T02:27:52.608Z,10.70
2017-12-16T02:28:52.517Z,10.70
2017-12-16T02:29:52.611Z,10.70
2017-12-16T02:30:52.648Z,10.20
2017-12-16T02:31:52.578Z,10.20
2017-12-16T02:32:52.645Z,10.20
2017-12-16T02:33:52.582Z,10.20
2017-12-16T02:34:52.579Z,10.20
2017-12-16T02:35:52.649Z,10.20
2017-12-16T02:36:52.649Z,10.20
2017-12-16T02:37:52.576Z,10.20
2017-12-16T02:38:52.649Z,10.20
2017-12-16T02:39:52.582Z,10.20
2017-12-16T02:40:52.555Z,9.70
2017-12-16T02:41:52.527Z,9.70
2017-12-16T02:42:52.577Z,9.70
2017-12-16T02:43:52.532Z,9.70
2017-12-16T02:44:52.651Z,9.70
2017-12-16T02:45:52.533Z,9.70
2017-12-16T02:46:52.602Z,9.70
2017-12-16T02:47:52.534Z,9.70
2017-12-16T02:48:52.596Z,9.70
2017-12-16T02:49:52.555Z,9.70
2017-12-16T02:50:52.519Z,13.00
2017-12-16T02:51:52.542Z,13.00
2017-12-16T02:52:52.537Z,13.00
2017-12-16T02:53:52.538Z,13.00
2017-12-16T02:54:52.596Z,13.00
2017-12-16T02:55:52.589Z,13.00
2017-12-16T02:56:52.476Z,13.00
2017-12-16T02:57:52.481Z,13.00
2017-12-16T02:58:52.539Z,13.00
2017-12-16T02:59:52.592Z,13.00
2017-12-16T03:00:52.663Z,13.99
2017-12-16T03:01:52.592Z,13.99
2017-12-16T03:02:52.667Z,13.99
2017-12-16T03:03:52.599Z,13.99
2017-12-16T03:04:52.596Z,13.99
2017-12-16T03:05:52.666Z,13.99
2017-12-16T03:06:52.599Z,13.99
2017-12-16T03:07:52.667Z,13.99
2017-12-16T03:08:52.602Z,13.99
2017-12-16T03:09:52.672Z,13.99
2017-12-16T03:10:52.541Z,11.30
2017-12-16T03:11:52.548Z,11.30
2017-12-16T03:12:52.634Z,11.30
2017-12-16T03:13:52.568Z,11.30
2017-12-16T03:14:52.619Z,11.30
2017-12-16T03:15:52.548Z,11.30
2017-12-16T03:16:52.639Z,11.30
2017-12-16T03:17:52.574Z,11.30
2017-12-16T03:18:52.621Z,11.30
2017-12-16T03:19:52.556Z,11.30
2017-12-16T03:20:52.527Z,10.40
2017-12-16T03:21:52.567Z,10.40
2017-12-16T03:22:52.535Z,10.40
2017-12-16T03:23:52.658Z,10.40
2017-12-16T03:24:52.630Z,10.40
2017-12-16T03:25:52.546Z,10.40
2017-12-16T03:26:52.609Z,10.40
2017-12-16T03:27:52.548Z,10.40
2017-12-16T03:28:52.539Z,10.40
2017-12-16T03:29:52.639Z,10.40
2017-12-16T03:30:52.560Z,10.30
2017-12-16T03:31:52.583Z,10.30
2017-12-16T03:32:52.652Z,10.30
2017-12-16T03:33:52.749Z,10.30
2017-12-16T03:34:52.690Z,10.30
2017-12-16T03:35:52.682Z,10.30
2017-12-16T03:36:52.680Z,10.30
2017-12-16T03:37:52.674Z,10.30
2017-12-16T03:38:52.667Z,10.30
2017-12-16T03:39:52.585Z,10.30
2017-12-16T03:40:52.685Z,10.50
2017-12-16T03:41:52.617Z,10.50
2017-12-16T03:42:52.686Z,10.50
2017-12-16T03:43:52.690Z,10.50
2017-12-16T03:44:52.548Z,10.50
2017-12-16T03:45:52.643Z,10.50
2017-12-16T03:46:52.567Z,10.50
2017-12-16T03:47:52.689Z,10.50
2017-12-16T03:48:52.589Z,10.50
2017-12-16T03:49:52.575Z,10.50
2017-12-16T03:50:52.623Z,11.30
2017-12-16T03:51:52.700Z,11.30
2017-12-16T03:52:52.625Z,11.30
2017-12-16T03:53:52.694Z,11.30
2017-12-16T03:54:52.621Z,11.30
2017-12-16T03:55:52.697Z,11.30
2017-12-16T03:56:52.698Z,11.30
2017-12-16T03:57:52.700Z,11.30
2017-12-16T03:58:52.658Z,11.30
2017-12-16T03:59:52.697Z,11.30
2017-12-16T04:00:52.629Z,10.30
2017-12-16T04:01:52.699Z,10.30
2017-12-16T04:02:52.627Z,10.30
2017-12-16T04:03:52.699Z,10.30
2017-12-16T04:04:52.631Z,10.30
2017-12-16T04:05:52.912Z,10.30
2017-12-16T04:06:52.631Z,10.30
2017-12-16T04:07:52.703Z,10.30
2017-12-16T04:08:52.629Z,10.30
2017-12-16T04:09:52.730Z,10.30
2017-12-16T04:10:52.636Z,10.40
2017-12-16T04:11:52.705Z,10.40
2017-12-16T04:12:52.599Z,10.40
2017-12-16T04:13:52.707Z,10.40
2017-12-16T04:14:52.640Z,10.40
2017-12-16T04:15:52.707Z,10.40
2017-12-16T04:16:52.637Z,10.40
2017-12-16T04:17:52.710Z,10.40
2017-12-16T04:18:52.656Z,10.40
2017-12-16T04:19:52.665Z,10.40
2017-12-16T04:20:52.620Z,9.50
2017-12-16T04:21:52.669Z,9.50
2017-12-16T04:22:52.661Z,9.50
2017-12-16T04:23:52.659Z,9.50
2017-12-16T04:24:52.581Z,9.50
2017-12-16T04:25:52.670Z,9.50
2017-12-16T04:26:52.626Z,9.50
2017-12-16T04:27:52.664Z,9.50
2017-12-16T04:28:52.678Z,9.50
2017-12-16T04:29:52.606Z,9.50
2017-12-16T04:30:52.718Z,13.50
2017-12-16T04:31:52.654Z,13.50
2017-12-16T04:32:52.724Z,13.50
2017-12-16T04:33:52.650Z,13.50
2017-12-16T04:34:52.718Z,13.50
2017-12-16T04:35:52.647Z,13.50
2017-12-16T04:36:52.720Z,13.50
2017-12-16T04:37:52.657Z,13.50
2017-12-16T04:38:52.657Z,13.50
2017-12-16T04:39:52.725Z,13.50
2017-12-16T04:40:52.610Z,9.40
2017-12-16T04:41:52.686Z,9.40
2017-12-16T04:42:52.581Z,9.40
2017-12-16T04:43:52.578Z,9.40
2017-12-16T04:44:52.581Z,9.40
2017-12-16T04:45:52.685Z,9.40
2017-12-16T04:46:52.614Z,9.40
2017-12-16T04:47:52.706Z,9.40
2017-12-16T04:48:52.681Z,9.40
2017-12-16T04:49:52.657Z,9.40
2017-12-16T04:50:52.636Z,12.50
2017-12-16T04:51:52.746Z,12.50
2017-12-16T04:52:52.662Z,12.50
2017-12-16T04:53:52.694Z,12.50
2017-12-16T04:54:52.654Z,12.50
2017-12-16T04:55:52.621Z,12.50
2017-12-16T04:56:52.594Z,12.50
2017-12-16T04:57:52.593Z,12.50
2017-12-16T04:58:52.693Z,12.50
2017-12-16T04:59:52.619Z,12.50
2017-12-16T05:00:52.691Z,9.00
2017-12-16T05:01:52.589Z,9.00
2017-12-16T05:02:52.642Z,9.00
2017-12-16T05:03:52.716Z,9.00
2017-12-16T05:04:52.666Z,9.00
2017-12-16T05:05:52.623Z,9.00
2017-12-16T05:06:52.663Z,9.00
2017-12-16T05:07:52.699Z,9.00
2017-12-16T05:08:52.606Z,9.00
2017-12-16T05:09:52.626Z,9.00
2017-12-16T05:10:52.737Z,12.80
2017-12-16T05:11:52.692Z,12.80
2017-12-16T05:12:52.729Z,12.80
2017-12-16T05:13:52.616Z,12.80
2017-12-16T05:14:52.709Z,12.80
2017-12-16T05:15:52.647Z,12.80
2017-12-16T05:16:52.623Z,12.80
2017-12-16T05:17:52.608Z,12.80
2017-12-16T05:18:52.646Z,12.80
2017-12-16T05:19:52.732Z,12.80
2017-12-16T05:20:52.693Z,12.50
2017-12-16T05:21:52.649Z,12.50
2017-12-16T05:22:52.694Z,12.50
2017-12-16T05:23:52.691Z,12.50
2017-12-16T05:24:52.650Z,12.50
2017-12-16T05:25:52.698Z,12.50
2017-12-16T05:26:52.679Z,12.50
2017-12-16T05:27:52.654Z,12.50
2017-12-16T05:28:52.697Z,12.50
2017-12-16T05:29:52.741Z,12.50
2017-12-16T05:30:52.702Z,11.50
2017-12-16T05:31:52.632Z,11.50
2017-12-16T05:32:52.660Z,11.50
2017-12-16T05:33:52.655Z,11.50
2017-12-16T05:34:52.614Z,11.50
2017-12-16T05:35:52.682Z,11.50
2017-12-16T05:36:52.747Z,11.50
2017-12-16T05:37:52.654Z,11.50
2017-12-16T05:38:52.630Z,11.50
2017-12-16T05:39:52.658Z,11.50
2017-12-16T05:40:52.758Z,12.50
2017-12-16T05:41:52.690Z,12.50
2017-12-16T05:42:52.697Z,12.50
2017-12-16T05:43:52.692Z,12.50
2017-12-16T05:44:52.761Z,12.50
2017-12-16T05:45:52.688Z,12.50
2017-12-16T05:46:52.762Z,12.50
2017-12-16T05:47:52.762Z,12.50
2017-12-16T05:48:52.766Z,12.50
2017-12-16T05:49:52.694Z,12.50
2017-12-16T05:50:52.647Z,11.10
2017-12-16T05:51:52.651Z,11.10
2017-12-16T05:52:52.648Z,11.10
2017-12-16T05:53:52.651Z,11.10
2017-12-16T05:54:52.653Z,11.10
2017-12-16T05:55:52.629Z,11.10
2017-12-16T05:56:52.756Z,11.10
2017-12-16T05:57:52.717Z,11.10
2017-12-16T05:58:52.717Z,11.10
2017-12-16T05:59:52.632Z,11.10
2017-12-16T06:00:52.718Z,11.10
2017-12-16T06:01:52.630Z,12.40
2017-12-16T06:02:52.730Z,12.40
2017-12-16T06:03:52.637Z,12.40
2017-12-16T06:04:52.680Z,12.40
2017-12-16T06:05:52.722Z,12.40
2017-12-16T06:06:52.698Z,12.40
2017-12-16T06:07:52.736Z,12.40
2017-12-16T06:08:52.662Z,12.40
2017-12-16T06:09:52.643Z,12.40
2017-12-16T06:10:52.660Z,12.40
2017-12-16T06:11:52.667Z,13.40
2017-12-16T06:12:52.712Z,13.40
2017-12-16T06:13:52.780Z,13.40
2017-12-16T06:14:52.719Z,13.40
2017-12-16T06:15:52.782Z,13.40
2017-12-16T06:16:52.743Z,13.40
2017-12-16T06:17:52.780Z,13.40
2017-12-16T06:18:52.669Z,13.40
2017-12-16T06:19:52.768Z,13.40
2017-12-16T06:20:52.784Z,13.40
2017-12-16T06:21:52.709Z,11.90
2017-12-16T06:22:52.732Z,11.90
2017-12-16T06:23:52.663Z,11.90
2017-12-16T06:24:52.734Z,11.90
2017-12-16T06:25:52.689Z,11.90
2017-12-16T06:26:52.650Z,11.90
2017-12-16T06:27:52.777Z,11.90
2017-12-16T06:28:52.691Z,11.90
2017-12-16T06:29:52.670Z,11.90
2017-12-16T06:30:52.745Z,11.90
2017-12-16T06:31:52.667Z,16.50
2017-12-16T06:32:52.738Z,16.50
2017-12-16T06:33:52.672Z,16.50
2017-12-16T06:34:52.772Z,16.50
2017-12-16T06:35:52.673Z,16.50
2017-12-16T06:36:52.781Z,16.50
2017-12-16T06:37:52.744Z,16.50
2017-12-16T06:38:52.743Z,16.50
2017-12-16T06:39:52.792Z,16.50
2017-12-16T06:40:52.744Z,16.50
2017-12-16T06:41:52.728Z,15.50
2017-12-16T06:42:52.814Z,15.50
2017-12-16T06:43:52.729Z,15.50
2017-12-16T06:44:52.798Z,15.50
2017-12-16T06:45:52.731Z,15.50
2017-12-16T06:46:52.730Z,15.50
2017-12-16T06:47:52.798Z,15.50
2017-12-16T06:48:52.734Z,15.50
2017-12-16T06:49:52.800Z,15.50
2017-12-16T06:50:52.729Z,15.50
2017-12-16T06:51:52.799Z,18.90
2017-12-16T06:52:52.734Z,18.90
2017-12-16T06:53:52.802Z,18.90
2017-12-16T06:54:52.734Z,18.90
2017-12-16T06:55:52.802Z,18.90
2017-12-16T06:56:52.831Z,18.90
2017-12-16T06:57:52.734Z,18.90
2017-12-16T06:58:52.804Z,18.90
2017-12-16T06:59:52.807Z,18.90
2017-12-16T07:00:52.750Z,18.90
2017-12-16T07:01:52.806Z,15.60
2017-12-16T07:02:52.739Z,15.60
2017-12-16T07:03:52.809Z,15.60
2017-12-16T07:04:52.811Z,15.60
2017-12-16T07:05:52.738Z,15.60
2017-12-16T07:06:52.811Z,15.60
2017-12-16T07:07:52.812Z,15.60
2017-12-16T07:08:52.745Z,15.60
2017-12-16T07:09:52.813Z,15.60
2017-12-16T07:10:52.746Z,15.60
2017-12-16T07:11:52.815Z,16.30
2017-12-16T07:12:52.750Z,16.30
2017-12-16T07:13:52.814Z,16.30
2017-12-16T07:14:52.751Z,16.30
2017-12-16T07:15:52.815Z,16.30
2017-12-16T07:16:52.749Z,16.30
2017-12-16T07:17:52.816Z,16.30
2017-12-16T07:18:52.751Z,16.30
2017-12-16T07:19:52.820Z,16.30
2017-12-16T07:20:52.752Z,16.30
2017-12-16T07:21:52.821Z,18.90
2017-12-16T07:22:52.861Z,18.90
2017-12-16T07:23:52.752Z,18.90
2017-12-16T07:24:52.828Z,18.90
2017-12-16T07:25:52.774Z,18.90
2017-12-16T07:26:52.844Z,18.90
2017-12-16T07:27:52.753Z,18.90
2017-12-16T07:28:52.825Z,18.90
2017-12-16T07:29:52.756Z,18.90
2017-12-16T07:30:52.754Z,18.90
2017-12-16T07:31:52.828Z,21.40
2017-12-16T07:32:52.758Z,21.40
2017-12-16T07:33:52.826Z,21.40
2017-12-16T07:34:52.756Z,21.40
2017-12-16T07:35:52.828Z,21.40
2017-12-16T07:36:52.780Z,21.40
2017-12-16T07:37:52.830Z,21.40
2017-12-16T07:38:52.769Z,21.40
2017-12-16T07:39:52.830Z,21.40
2017-12-16T07:40:52.775Z,21.40
2017-12-16T07:41:52.832Z,19.40
2017-12-16T07:42:52.832Z,19.40
2017-12-16T07:43:52.763Z,19.40
2017-12-16T07:44:52.833Z,19.40
2017-12-16T07:45:52.840Z,19.40
2017-12-16T07:46:52.766Z,19.40
2017-12-16T07:47:52.840Z,19.40
2017-12-16T07:48:52.773Z,19.40
2017-12-16T07:49:52.837Z,19.40
2017-12-16T07:50:52.768Z,19.40
2017-12-16T07:51:52.837Z,19.30
2017-12-16T07:52:52.773Z,19.30
2017-12-16T07:53:52.729Z,19.30
2017-12-16T07:54:52.799Z,19.30
2017-12-16T07:55:52.840Z,19.30
2017-12-16T07:56:52.777Z,19.30
2017-12-16T07:57:52.774Z,19.30
2017-12-16T07:58:52.841Z,19.30
2017-12-16T07:59:52.770Z,19.30
2017-12-16T08:00:52.842Z,19.30
2017-12-16T08:01:52.710Z,18.20
2017-12-16T08:02:52.699Z,18.20
2017-12-16T08:03:52.731Z,18.20
2017-12-16T08:04:52.805Z,18.20
2017-12-16T08:05:52.773Z,18.20
2017-12-16T08:06:52.794Z,18.20
2017-12-16T08:07:52.802Z,18.20
2017-12-16T08:08:52.778Z,18.20
2017-12-16T08:09:52.777Z,18.20
2017-12-16T08:10:52.774Z,18.20
2017-12-16T08:11:52.803Z,19.50
2017-12-16T08:12:52.824Z,19.50
2017-12-16T08:13:52.708Z,19.50
2017-12-16T08:14:52.782Z,19.50
2017-12-16T08:15:52.781Z,19.50
2017-12-16T08:16:52.742Z,19.50
2017-12-16T08:17:52.744Z,19.50
2017-12-16T08:18:52.772Z,19.50
2017-12-16T08:19:52.765Z,19.50
2017-12-16T08:20:52.724Z,19.50
2017-12-16T08:21:52.736Z,22.60
2017-12-16T08:22:52.784Z,22.60
2017-12-16T08:23:52.856Z,22.60
2017-12-16T08:24:52.787Z,22.60
2017-12-16T08:25:52.860Z,22.60
2017-12-16T08:26:52.784Z,22.60
2017-12-16T08:27:52.859Z,22.60
2017-12-16T08:28:52.857Z,22.60
2017-12-16T08:29:52.783Z,22.60
2017-12-16T08:30:52.861Z,22.60
2017-12-16T08:31:52.795Z,19.60
2017-12-16T08:32:52.844Z,19.60
2017-12-16T08:33:52.866Z,19.60
2017-12-16T08:34:52.791Z,19.60
2017-12-16T08:35:52.861Z,19.60
2017-12-16T08:36:52.790Z,19.60
2017-12-16T08:37:52.863Z,19.60
2017-12-16T08:38:52.792Z,19.60
2017-12-16T08:39:52.885Z,19.60
2017-12-16T08:40:52.798Z,19.60
2017-12-16T08:41:52.867Z,24.80
2017-12-16T08:42:52.803Z,24.80
2017-12-16T08:43:52.829Z,24.80
2017-12-16T08:44:52.872Z,24.80
2017-12-16T08:45:52.800Z,24.80
2017-12-16T08:46:52.871Z,24.80
2017-12-16T08:47:52.797Z,24.80
2017-12-16T08:48:52.871Z,24.80
2017-12-16T08:49:52.875Z,24.80
2017-12-16T08:50:52.807Z,24.80
2017-12-16T08:51:52.740Z,23.90
2017-12-16T08:52:52.902Z,23.90
2017-12-16T08:53:52.802Z,23.90
2017-12-16T08:54:52.782Z,23.90
2017-12-16T08:55:52.741Z,23.90
2017-12-16T08:56:52.732Z,23.90
2017-12-16T08:57:52.834Z,23.90
2017-12-16T08:58:52.834Z,23.90
2017-12-16T08:59:52.804Z,23.90
2017-12-16T09:00:52.740Z,23.90
2017-12-16T09:01:52.761Z,29.80
2017-12-16T09:02:52.807Z,29.80
2017-12-16T09:03:52.787Z,29.80
2017-12-16T09:04:52.811Z,29.80
2017-12-16T09:05:52.763Z,29.80
2017-12-16T09:06:52.841Z,29.80
2017-12-16T09:07:52.882Z,29.80
2017-12-16T09:08:52.880Z,29.80
2017-12-16T09:09:52.849Z,29.80
2017-12-16T09:10:52.761Z,29.80
2017-12-16T09:11:52.815Z,31.50
2017-12-16T09:12:52.817Z,31.50
2017-12-16T09:13:52.906Z,31.50
2017-12-16T09:14:52.813Z,31.50
2017-12-16T09:15:52.885Z,31.50
2017-12-16T09:16:52.820Z,31.50
2017-12-16T09:17:52.815Z,31.50
2017-12-16T09:18:52.888Z,31.50
2017-12-16T09:19:52.821Z,31.50
2017-12-16T09:20:52.889Z,31.50
2017-12-16T09:21:52.776Z,26.90
2017-12-16T09:22:52.760Z,26.90
2017-12-16T09:23:52.854Z,26.90
2017-12-16T09:24:52.834Z,26.90
2017-12-16T09:25:52.867Z,26.90
2017-12-16T09:26:52.873Z,26.90
2017-12-16T09:27:52.748Z,26.90
2017-12-16T09:28:52.793Z,26.90
2017-12-16T09:29:52.798Z,26.90
2017-12-16T09:30:52.759Z,26.90
2017-12-16T09:31:52.858Z,26.00
2017-12-16T09:32:52.855Z,26.00
2017-12-16T09:33:52.757Z,26.00
2017-12-16T09:34:52.860Z,26.00
2017-12-16T09:35:52.861Z,26.00
2017-12-16T09:36:52.805Z,26.00
2017-12-16T09:37:52.784Z,26.00
2017-12-16T09:38:52.849Z,26.00
2017-12-16T09:39:52.879Z,26.00
2017-12-16T09:40:52.828Z,26.00
2017-12-16T09:41:52.901Z,25.60
2017-12-16T09:42:52.829Z,25.60
2017-12-16T09:43:52.905Z,25.60
2017-12-16T09:44:52.832Z,25.60
2017-12-16T09:45:52.905Z,25.60
2017-12-16T09:46:52.832Z,25.60
2017-12-16T09:47:52.908Z,25.60
2017-12-16T09:48:52.833Z,25.60
2017-12-16T09:49:52.907Z,25.60
2017-12-16T09:50:52.834Z,25.60
2017-12-16T09:51:52.819Z,28.00
2017-12-16T09:52:52.895Z,28.00
2017-12-16T09:53:52.851Z,28.00
2017-12-16T09:54:52.805Z,28.00
2017-12-16T09:55:52.851Z,28.00
2017-12-16T09:56:52.839Z,28.00
2017-12-16T09:57:52.814Z,28.00
2017-12-16T09:58:52.894Z,28.00
2017-12-16T09:59:52.794Z,28.00
2017-12-16T10:00:52.901Z,28.00
2017-12-16T10:01:52.860Z,29.00
2017-12-16T10:02:52.856Z,29.00
2017-12-16T10:03:52.791Z,29.00
2017-12-16T10:04:52.879Z,29.00
2017-12-16T10:05:52.818Z,29.00
2017-12-16T10:06:52.842Z,29.00
2017-12-16T10:07:52.816Z,29.00
2017-12-16T10:08:52.859Z,29.00
2017-12-16T10:09:52.910Z,29.00
2017-12-16T10:10:52.883Z,29.00
2017-12-16T10:11:52.918Z,30.20
2017-12-16T10:12:52.832Z,30.20
2017-12-16T10:13:52.920Z,30.20
2017-12-16T10:14:52.923Z,30.20
2017-12-16T10:15:52.851Z,30.20
2017-12-16T10:16:52.922Z,30.20
2017-12-16T10:17:52.854Z,30.20
2017-12-16T10:18:52.926Z,30.20
2017-12-16T10:19:52.853Z,30.20
2017-12-16T10:20:52.925Z,30.20
2017-12-16T10:21:52.851Z,28.30
2017-12-16T10:22:52.928Z,28.30
2017-12-16T10:23:52.864Z,28.30
2017-12-16T10:24:52.931Z,28.30
2017-12-16T10:25:52.854Z,28.30
2017-12-16T10:26:52.929Z,28.30
2017-12-16T10:27:52.856Z,28.30
2017-12-16T10:28:52.930Z,28.30
2017-12-16T10:29:52.856Z,28.30
2017-12-16T10:30:52.931Z,28.30
2017-12-16T10:31:52.835Z,21.50
2017-12-16T10:32:52.838Z,21.50
2017-12-16T10:33:52.907Z,21.50
2017-12-16T10:34:52.840Z,21.50
2017-12-16T10:35:52.861Z,21.50
2017-12-16T10:36:52.789Z,21.50
2017-12-16T10:37:52.885Z,21.50
2017-12-16T10:38:52.790Z,21.50
2017-12-16T10:39:52.805Z,21.50
2017-12-16T10:40:52.800Z,21.50
2017-12-16T10:41:52.707Z,0.00
2017-12-16T10:42:52.703Z,0.00
2017-12-16T10:43:52.706Z,0.00
2017-12-16T10:44:52.701Z,0.00
2017-12-16T10:45:52.701Z,0.00
2017-12-16T10:46:52.706Z,0.00
2017-12-16T10:47:52.707Z,0.00
2017-12-16T10:48:52.705Z,0.00
2017-12-16T10:49:52.708Z,0.00
2017-12-16T10:50:52.710Z,0.00
2017-12-16T10:51:52.945Z,17.90
2017-12-16T10:52:52.869Z,17.90
2017-12-16T10:53:52.945Z,17.90
2017-12-16T10:54:52.870Z,17.90
2017-12-16T10:55:52.948Z,17.90
2017-12-16T10:56:52.880Z,17.90
2017-12-16T10:57:52.949Z,17.90
2017-12-16T10:58:52.948Z,17.90
2017-12-16T10:59:52.887Z,17.90
2017-12-16T11:00:52.880Z,17.90
2017-12-16T11:01:52.875Z,22.80
2017-12-16T11:02:52.952Z,22.80
2017-12-16T11:03:52.952Z,22.80
2017-12-16T11:04:52.888Z,22.80
2017-12-16T11:05:52.951Z,22.80
2017-12-16T11:06:52.880Z,22.80
2017-12-16T11:07:52.953Z,22.80
2017-12-16T11:08:52.877Z,22.80
2017-12-16T11:09:52.956Z,22.80
2017-12-16T11:10:52.881Z,22.80
2017-12-16T11:11:52.957Z,20.90
2017-12-16T11:12:52.890Z,20.90
2017-12-16T11:13:52.958Z,20.90
2017-12-16T11:14:52.887Z,20.90
2017-12-16T11:15:52.959Z,20.90
2017-12-16T11:16:52.889Z,20.90
2017-12-16T11:17:52.962Z,20.90
2017-12-16T11:18:52.890Z,20.90
2017-12-16T11:19:52.960Z,20.90
2017-12-16T11:20:52.894Z,20.90
2017-12-16T11:21:52.959Z,20.50
2017-12-16T11:22:52.886Z,20.50
2017-12-16T11:23:52.963Z,20.50
2017-12-16T11:24:52.890Z,20.50
2017-12-16T11:25:52.890Z,20.50
2017-12-16T11:26:52.895Z,20.50
2017-12-16T11:27:52.966Z,20.50
2017-12-16T11:28:52.897Z,20.50
2017-12-16T11:29:52.968Z,20.50
2017-12-16T11:30:52.906Z,20.50
2017-12-16T11:31:52.967Z,19.50
2017-12-16T11:32:52.976Z,19.50
2017-12-16T11:33:52.969Z,19.50
2017-12-16T11:34:52.976Z,19.50
2017-12-16T11:35:52.895Z,19.50
2017-12-16T11:36:52.970Z,19.50
2017-12-16T11:37:52.903Z,19.50
2017-12-16T11:38:52.974Z,19.50
2017-12-16T11:39:52.904Z,19.50
2017-12-16T11:40:52.974Z,19.50
2017-12-16T11:41:52.902Z,28.80
2017-12-16T11:42:52.974Z,28.80
2017-12-16T11:43:52.907Z,28.80
2017-12-16T11:44:52.867Z,28.80
2017-12-16T11:45:52.908Z,28.80
2017-12-16T11:46:52.978Z,28.80
2017-12-16T11:47:52.913Z,28.80
2017-12-16T11:48:52.978Z,28.80
2017-12-16T11:49:52.922Z,28.80
2017-12-16T11:50:52.981Z,28.80
2017-12-16T11:51:52.921Z,18.00
2017-12-16T11:52:52.849Z,18.00
2017-12-16T11:53:52.942Z,18.00
2017-12-16T11:54:52.868Z,18.00
2017-12-16T11:55:52.888Z,18.00
2017-12-16T11:56:52.943Z,18.00
2017-12-16T11:57:52.926Z,18.00
2017-12-16T11:58:52.849Z,18.00
2017-12-16T11:59:52.947Z,18.00
2017-12-16T12:00:52.838Z,18.00
2017-12-16T12:01:52.984Z,21.80
2017-12-16T12:02:52.921Z,21.80
2017-12-16T12:03:52.913Z,21.80
2017-12-16T12:04:52.987Z,21.80
2017-12-16T12:05:52.920Z,21.80
2017-12-16T12:06:52.989Z,21.80
2017-12-16T12:07:52.916Z,21.80
2017-12-16T12:08:52.925Z,21.80
2017-12-16T12:09:52.996Z,21.80
2017-12-16T12:10:52.915Z,21.80
2017-12-16T12:11:52.996Z,14.50
2017-12-16T12:12:52.917Z,14.50
2017-12-16T12:13:52.993Z,14.50
2017-12-16T12:14:52.914Z,14.50
2017-12-16T12:15:52.920Z,14.50
2017-12-16T12:16:52.997Z,14.50
2017-12-16T12:17:52.923Z,14.50
2017-12-16T12:18:52.993Z,14.50
2017-12-16T12:19:52.947Z,14.50
2017-12-16T12:20:52.999Z,14.50
2017-12-16T12:21:52.762Z,0.00
2017-12-16T12:22:52.763Z,0.00
2017-12-16T12:23:52.766Z,0.00
2017-12-16T12:24:52.764Z,0.00
2017-12-16T12:25:52.765Z,0.00
2017-12-16T12:26:52.765Z,0.00
2017-12-16T12:27:52.766Z,0.00
2017-12-16T12:28:52.767Z,0.00
2017-12-16T12:29:52.770Z,0.00
2017-12-16T12:30:52.765Z,0.00
2017-12-16T12:31:53.002Z,17.60
2017-12-16T12:32:52.931Z,17.60
2017-12-16T12:33:53.005Z,17.60
2017-12-16T12:34:52.938Z,17.60
2017-12-16T12:35:53.013Z,17.60
2017-12-16T12:36:52.931Z,17.60
2017-12-16T12:37:53.006Z,17.60
2017-12-16T12:38:52.938Z,17.60
2017-12-16T12:39:52.936Z,17.60
2017-12-16T12:40:53.018Z,17.60
2017-12-16T12:41:52.989Z,15.60
2017-12-16T12:42:53.009Z,15.60
2017-12-16T12:43:52.935Z,15.60
2017-12-16T12:44:53.010Z,15.60
2017-12-16T12:45:52.932Z,15.60
2017-12-16T12:46:52.942Z,15.60
2017-12-16T12:47:53.012Z,15.60
2017-12-16T12:48:52.939Z,15.60
2017-12-16T12:49:53.013Z,15.60
2017-12-16T12:50:52.939Z,15.60
2017-12-16T12:51:53.017Z,15.60
2017-12-16T12:52:52.970Z,19.80
2017-12-16T12:53:53.086Z,19.80
2017-12-16T12:54:53.003Z,19.80
2017-12-16T12:55:52.930Z,19.80
2017-12-16T12:56:53.068Z,19.80